createdAt,value
2022-08-30T00:02:30.517Z,0
2022-08-30T00:08:50.303Z,0
2022-08-30T00:15:13.371Z,0
2022-08-30T00:21:33.302Z,0
2022-08-30T00:27:56.304Z,0
2022-08-30T00:34:16.353Z,0
2022-08-30T00:40:39.353Z,0
2022-08-30T00:46:59.309Z,0
2022-08-30T00:53:22.351Z,0
2022-08-30T00:59:42.306Z,0
2022-08-30T01:06:05.360Z,0
2022-08-30T01:12:25.310Z,0
2022-08-30T01:18:48.330Z,0
2022-08-30T01:25:08.417Z,0
2022-08-30T01:31:31.299Z,0
2022-08-30T01:37:51.367Z,0
2022-08-30T01:44:14.322Z,0
2022-08-30T01:50:34.304Z,0
2022-08-30T01:56:57.365Z,0
2022-08-30T02:03:17.523Z,0
2022-08-30T02:09:40.356Z,0
2022-08-30T02:16:00.341Z,0
2022-08-30T02:22:23.308Z,0
2022-08-30T02:28:49.778Z,0
2022-08-30T02:35:06.305Z,0
2022-08-30T02:41:26.324Z,0
2022-08-30T02:47:49.363Z,0
2022-08-30T02:54:09.306Z,0
2022-08-30T03:00:32.353Z,0
2022-08-30T03:06:52.330Z,0
2022-08-30T03:13:15.529Z,0
2022-08-30T03:19:35.371Z,0
2022-08-30T03:25:58.337Z,0
2022-08-30T03:32:18.407Z,0
2022-08-30T03:38:41.319Z,0
2022-08-30T03:45:01.323Z,0
2022-08-30T03:51:24.358Z,0
2022-08-30T03:57:44.308Z,0
2022-08-30T04:21:13.568Z,4
2022-08-30T04:27:32.308Z,9
2022-08-30T04:33:52.321Z,24
2022-08-30T04:40:15.392Z,50
2022-08-30T04:46:35.331Z,94
2022-08-30T04:52:58.359Z,146
2022-08-30T04:59:18.311Z,208
2022-08-30T05:05:41.344Z,275
2022-08-30T05:12:01.335Z,347
2022-08-30T05:18:24.319Z,419
2022-08-30T05:24:44.402Z,470
2022-08-30T05:31:07.354Z,553
2022-08-30T05:37:27.358Z,690
2022-08-30T05:43:50.323Z,837
2022-08-30T05:50:10.356Z,696
2022-08-30T05:56:33.368Z,679
2022-08-30T06:02:53.412Z,670
2022-08-30T06:09:16.333Z,756
2022-08-30T06:15:36.341Z,848
2022-08-30T06:21:59.322Z,906
2022-08-30T06:28:19.361Z,1019
2022-08-30T06:34:42.315Z,1087
2022-08-30T06:41:02.342Z,1143
2022-08-30T06:47:25.341Z,1262
2022-08-30T06:53:45.325Z,1478
2022-08-30T07:00:08.395Z,1490
2022-08-30T07:06:28.318Z,1437
2022-08-30T07:12:51.394Z,1396
2022-08-30T07:19:13.553Z,1376
2022-08-30T07:25:34.331Z,1392
2022-08-30T07:31:54.331Z,1609
2022-08-30T07:38:17.319Z,2103
2022-08-30T07:44:37.342Z,3091
2022-08-30T07:51:04.623Z,3180
2022-08-30T07:57:20.340Z,2652
2022-08-30T08:03:43.401Z,2487
2022-08-30T08:10:03.363Z,2587
2022-08-30T08:16:27.405Z,2122
2022-08-30T08:22:47.313Z,2209
2022-08-30T08:29:10.513Z,2219
2022-08-30T08:35:30.329Z,2436
2022-08-30T08:41:53.319Z,2581
2022-08-30T08:48:13.405Z,2667
2022-08-30T08:54:36.624Z,3365
2022-08-30T09:00:56.713Z,3551
2022-08-30T09:07:19.409Z,3328
2022-08-30T09:13:39.323Z,4283
2022-08-30T09:20:02.513Z,3433
2022-08-30T09:26:22.329Z,2146
2022-08-30T09:32:45.366Z,1873
2022-08-30T09:39:05.610Z,3296
2022-08-30T09:45:28.327Z,3378
2022-08-30T09:51:48.363Z,3599
2022-08-30T10:07:58.375Z,2591
2022-08-30T10:14:18.382Z,5208
2022-08-30T10:20:41.359Z,4671
2022-08-30T10:27:01.310Z,4233
2022-08-30T10:33:25.368Z,4216
2022-08-30T10:39:44.344Z,4920
2022-08-30T10:46:07.332Z,6023
2022-08-30T10:52:27.358Z,4683
2022-08-30T10:58:50.840Z,5474
2022-08-30T11:05:10.315Z,4627
2022-08-30T11:11:33.330Z,3291
2022-08-30T11:17:53.313Z,2977
2022-08-30T11:24:16.361Z,5674
2022-08-30T11:30:36.565Z,4363
2022-08-30T11:36:59.332Z,5302
2022-08-30T11:43:19.379Z,5587
2022-08-30T11:49:42.445Z,4643
2022-08-30T11:56:02.485Z,5851
2022-08-30T12:02:26.400Z,4679
2022-08-30T12:08:47.229Z,5635
2022-08-30T12:15:09.356Z,6522
2022-08-30T12:21:29.321Z,5797
2022-08-30T12:27:52.354Z,6076
2022-08-30T12:34:12.614Z,5939
2022-08-30T12:40:35.392Z,6106
2022-08-30T12:46:58.931Z,6477
2022-08-30T12:53:18.318Z,3479
2022-08-30T12:59:38.361Z,3598
2022-08-30T13:06:02.807Z,5740
2022-08-30T13:12:21.332Z,6430
2022-08-30T13:18:44.314Z,5368
2022-08-30T13:25:04.325Z,7017
2022-08-30T13:31:27.449Z,7072
2022-08-30T13:37:49.735Z,6927
2022-08-30T13:44:11.541Z,5078
2022-08-30T13:50:30.722Z,5935
2022-08-30T13:56:53.334Z,6683
2022-08-30T14:03:13.401Z,6017
2022-08-30T14:09:36.316Z,5412
2022-08-30T14:22:19.312Z,5279
2022-08-30T14:28:39.304Z,3169
2022-08-30T14:35:02.366Z,4766
2022-08-30T14:41:23.479Z,5061
2022-08-30T14:47:46.318Z,4258
2022-08-30T14:54:06.346Z,4459
2022-08-30T15:00:29.343Z,5685
2022-08-30T15:06:49.351Z,5474
2022-08-30T15:13:12.322Z,4954
2022-08-30T15:19:32.410Z,4446
2022-08-30T15:25:55.349Z,4878
2022-08-30T15:32:15.313Z,2985
2022-08-30T15:38:38.375Z,3691
2022-08-30T15:44:58.311Z,2500
2022-08-30T15:51:21.352Z,2714
2022-08-30T16:14:43.837Z,4065
2022-08-30T16:21:03.316Z,4080
2022-08-30T16:27:26.357Z,3668
2022-08-30T16:33:46.311Z,4239
2022-08-30T16:40:09.358Z,2450
2022-08-30T16:46:29.385Z,2060
2022-08-30T16:52:52.321Z,1787
2022-08-30T16:59:12.488Z,2066
2022-08-30T17:05:35.317Z,1767
2022-08-30T17:11:55.362Z,1563
2022-08-30T17:18:18.535Z,1266
2022-08-30T17:24:38.317Z,920
2022-08-30T17:31:01.359Z,740
2022-08-30T17:37:21.320Z,525
2022-08-30T17:43:44.355Z,395
2022-08-30T17:50:04.353Z,371
2022-08-30T17:56:30.428Z,299
2022-08-30T18:02:47.358Z,201
2022-08-30T18:09:10.311Z,133
2022-08-30T18:15:30.368Z,70
2022-08-30T18:21:53.313Z,39
2022-08-30T18:28:13.429Z,22
2022-08-30T18:34:36.339Z,9
2022-08-30T18:40:56.341Z,3
2022-08-30T18:47:19.363Z,2
2022-08-30T18:53:39.308Z,0
2022-08-30T19:00:02.318Z,0
2022-08-30T19:06:22.394Z,0
2022-08-30T19:12:45.316Z,0
2022-08-30T19:19:05.403Z,0
2022-08-30T19:25:28.948Z,0
2022-08-30T19:31:48.511Z,0
2022-08-30T19:38:11.330Z,0
2022-08-30T19:44:31.333Z,0
2022-08-30T19:50:54.350Z,0
2022-08-30T19:57:14.311Z,0
2022-08-30T20:03:37.331Z,0
2022-08-30T20:09:57.350Z,0
2022-08-30T20:16:20.491Z,0
2022-08-30T20:22:40.543Z,0
2022-08-30T20:29:03.305Z,0
2022-08-30T20:35:23.369Z,0
2022-08-30T20:41:46.346Z,0
2022-08-30T20:48:06.310Z,0
2022-08-30T20:54:29.357Z,0
2022-08-30T21:00:49.322Z,0
2022-08-30T21:07:12.343Z,0
2022-08-30T21:13:32.338Z,0
2022-08-30T21:19:55.305Z,0
2022-08-30T21:26:15.393Z,0
2022-08-30T21:32:38.309Z,0
2022-08-30T21:55:43.935Z,0
2022-08-30T22:21:14.361Z,0
2022-08-30T22:27:34.309Z,0
2022-08-30T22:33:57.314Z,0
2022-08-30T22:40:17.364Z,0
2022-08-30T22:46:40.317Z,0
2022-08-30T22:53:00.357Z,0
2022-08-30T22:59:30.419Z,0
2022-08-30T23:05:43.384Z,0
2022-08-30T23:12:06.310Z,0
2022-08-30T23:18:26.298Z,0
2022-08-30T23:24:49.380Z,0
2022-08-30T23:31:09.311Z,0
2022-08-30T23:37:32.305Z,0
2022-08-30T23:43:52.352Z,0
2022-08-30T23:50:15.307Z,0
2022-08-30T23:56:35.344Z,0
